Time;durP1;ratioP1;P1;durP2;ratioP2;P2;SDS_P1;SDS_P2;PMS_P1;PMS_P2;Temp;Humidity;BMP_temperature;BMP_pressure;BME280_temperature;BME280_humidity;BME280_pressure;Samples;Min_cycle;Max_cycle;Signal;HPM_P1;HPM_P2
2023/01/03 00:00:44;;;;;;;0.70;0.70;;;;;;;5.09;100.00;93982.34;2580718;22;20316;-84
2023/01/03 00:01:46;;;;;;;1.00;0.88;;;;;;;5.05;100.00;93978.94;2580982;23;20326;-84
2023/01/03 00:02:47;;;;;;;1.85;0.90;;;;;;;5.06;100.00;93975.16;2556377;23;20008;-85
2023/01/03 00:03:48;;;;;;;1.60;0.75;;;;;;;5.07;100.00;93976.66;2556080;23;20465;-84
2023/01/03 00:04:49;;;;;;;1.00;0.70;;;;;;;5.07;100.00;93978.56;2569030;22;20051;-85
2023/01/03 00:05:50;;;;;;;2.75;0.90;;;;;;;5.05;100.00;93971.75;2580474;22;20004;-85
2023/01/03 00:06:52;;;;;;;0.77;0.70;;;;;;;5.05;100.00;93970.97;2556024;23;20001;-85
2023/01/03 00:07:54;;;;;;;2.33;0.90;;;;;;;5.03;100.00;93973.97;2568269;23;20004;-84
2023/01/03 00:08:57;;;;;;;1.00;0.90;;;;;;;5.05;100.00;93984.22;2568226;23;20411;-83
2023/01/03 00:10:09;;;;;;;1.52;0.70;;;;;;;5.03;100.00;93973.22;2569548;22;20121;-85
2023/01/03 00:11:12;;;;;;;1.48;0.70;;;;;;;5.12;100.00;93984.31;2580513;23;20131;-84
2023/01/03 00:12:24;;;;;;;0.73;0.73;;;;;;;5.02;100.00;93977.00;2556869;23;20052;-85
2023/01/03 00:13:25;;;;;;;0.95;0.95;;;;;;;5.04;100.00;93972.84;2570453;23;20035;-85
2023/01/03 00:14:30;;;;;;;0.73;0.70;;;;;;;5.05;100.00;93971.75;2581168;22;20008;-84
2023/01/03 00:15:34;;;;;;;3.65;0.90;;;;;;;5.06;100.00;93967.19;2580834;22;20008;-84
2023/01/03 00:16:51;;;;;;;0.80;0.80;;;;;;;5.08;100.00;93962.28;2574408;22;19992;-84
2023/01/03 00:17:54;;;;;;;1.63;0.70;;;;;;;5.04;100.00;93964.88;2579878;23;20043;-85
2023/01/03 00:18:55;;;;;;;0.75;0.50;;;;;;;5.05;100.00;93965.69;2580957;22;20008;-84
2023/01/03 00:19:56;;;;;;;0.80;0.80;;;;;;;5.05;100.00;93970.97;2568085;23;20001;-83
2023/01/03 00:21:03;;;;;;;2.17;0.90;;;;;;;5.00;100.00;93958.81;2580608;23;20031;-84
2023/01/03 00:22:04;;;;;;;1.45;0.80;;;;;;;5.00;100.00;93960.66;2581748;22;20094;-85
2023/01/03 00:23:05;;;;;;;1.55;0.80;;;;;;;4.98;100.00;93965.56;2568358;23;20024;-84
2023/01/03 00:24:08;;;;;;;0.80;0.77;;;;;;;4.99;100.00;93967.84;2555326;23;20317;-84
2023/01/03 00:25:09;;;;;;;0.80;0.80;;;;;;;4.99;100.00;93967.84;2555614;23;20089;-84
2023/01/03 00:26:17;;;;;;;0.77;0.77;;;;;;;5.02;100.00;93963.75;2558089;23;20071;-85
2023/01/03 00:27:18;;;;;;;0.60;0.60;;;;;;;5.01;100.00;93964.88;2568360;23;20004;-84
2023/01/03 00:28:19;;;;;;;0.93;0.82;;;;;;;5.03;100.00;93966.03;2568524;23;20127;-85
2023/01/03 00:29:20;;;;;;;1.27;0.68;;;;;;;5.00;100.00;93963.31;2568623;23;20009;-85
2023/01/03 00:30:22;;;;;;;2.25;1.00;;;;;;;4.98;100.00;93954.97;2567537;23;20089;-84
2023/01/03 00:31:23;;;;;;;0.70;0.70;;;;;;;4.96;100.00;93960.66;2568420;23;20006;-85
2023/01/03 00:32:24;;;;;;;1.52;0.70;;;;;;;4.96;100.00;93955.34;2555710;23;20013;-84
2023/01/03 00:33:25;;;;;;;1.77;0.68;;;;;;;4.97;100.00;93956.09;2568435;23;20153;-84
2023/01/03 00:34:27;;;;;;;0.80;0.80;;;;;;;4.96;100.00;93959.84;2568462;23;20478;-85
2023/01/03 00:35:28;;;;;;;0.60;0.60;;;;;;;4.94;100.00;93960.22;2568805;23;20005;-84
2023/01/03 00:36:29;;;;;;;0.70;0.70;;;;;;;4.96;100.00;93963.28;2568444;23;20078;-84
2023/01/03 00:37:30;;;;;;;0.70;0.60;;;;;;;5.00;100.00;93966.75;2568629;23;20004;-85
2023/01/03 00:38:31;;;;;;;2.47;0.70;;;;;;;5.03;100.00;93966.03;2556167;23;19997;-84
2023/01/03 00:39:33;;;;;;;0.80;0.65;;;;;;;5.05;100.00;93966.44;2568312;22;20004;-85
2023/01/03 00:40:34;;;;;;;0.70;0.70;;;;;;;5.13;100.00;93969.16;2580702;22;20086;-84
2023/01/03 00:41:35;;;;;;;0.75;0.60;;;;;;;5.06;100.00;93959.25;2567802;23;20012;-84
2023/01/03 00:43:27;;;;;;;0.70;0.70;;;;;;;5.00;100.00;93958.03;2568186;22;20012;-84
2023/01/03 00:43:57;;;;;;;1.55;1.02;;;;;;;4.96;100.00;93960.66;2584749;22;20011;-84
2023/01/03 00:44:58;;;;;;;0.90;0.63;;;;;;;4.93;100.00;93963.25;2568245;23;20778;-85
2023/01/03 00:46:00;;;;;;;1.83;0.68;;;;;;;4.97;100.00;93962.16;2568611;22;20459;-84
2023/01/03 00:47:08;;;;;;;2.25;0.80;;;;;;;4.96;100.00;93962.50;2582412;22;20123;-84
2023/01/03 00:48:10;;;;;;;0.95;0.70;;;;;;;4.92;100.00;93962.47;2580457;23;20000;-84
2023/01/03 00:49:11;;;;;;;0.90;0.90;;;;;;;4.91;100.00;93958.28;2580623;22;20414;-84
2023/01/03 00:50:12;;;;;;;0.70;0.60;;;;;;;4.95;100.00;93967.03;2580647;22;20079;-84
2023/01/03 00:51:17;;;;;;;1.08;0.85;;;;;;;4.96;100.00;93957.22;2555661;23;20017;-84
2023/01/03 00:52:18;;;;;;;0.57;0.57;;;;;;;4.95;100.00;93959.09;2570024;22;20055;-84
2023/01/03 00:53:20;;;;;;;1.00;0.75;;;;;;;4.92;100.00;93965.13;2580775;22;20004;-84
2023/01/03 00:54:22;;;;;;;0.85;0.60;;;;;;;5.01;100.00;93967.53;2580224;22;20027;-84
2023/01/03 00:55:23;;;;;;;0.65;0.57;;;;;;;5.23;100.00;93968.56;2580805;22;20008;-85
2023/01/03 00:56:34;;;;;;;0.50;0.50;;;;;;;5.18;100.00;93972.28;2580468;22;20360;-84
2023/01/03 00:57:35;;;;;;;0.40;0.40;;;;;;;5.07;100.00;93976.66;2582344;22;20012;-84
2023/01/03 00:58:37;;;;;;;1.17;0.68;;;;;;;5.01;100.00;93984.19;2580655;22;20036;-84
2023/01/03 00:59:38;;;;;;;2.00;0.70;;;;;;;4.96;100.00;93976.53;2568180;23;20414;-84
2023/01/03 01:00:39;;;;;;;0.93;0.60;;;;;;;4.93;100.00;93974.59;2568251;22;20022;-84
2023/01/03 01:01:46;;;;;;;0.65;0.65;;;;;;;4.92;100.00;93977.63;2568189;23;20084;-83
2023/01/03 01:02:52;;;;;;;1.67;0.60;;;;;;;4.93;100.00;93971.94;2570910;22;20626;-84
2023/01/03 01:03:58;;;;;;;1.08;0.68;;;;;;;4.92;100.00;93975.72;2568959;23;20087;-84
2023/01/03 01:05:04;;;;;;;2.15;0.85;;;;;;;4.95;100.00;93968.94;2558158;23;20072;-84
2023/01/03 01:06:24;;;;;;;1.98;0.77;;;;;;;4.96;100.00;93979.19;2569105;23;20079;-84
2023/01/03 01:07:31;;;;;;;2.75;0.70;;;;;;;4.94;100.00;93975.34;2571848;23;20083;-84
2023/01/03 01:08:36;;;;;;;0.75;0.60;;;;;;;4.94;100.00;93975.34;2581319;22;20000;-84
2023/01/03 01:09:53;;;;;;;1.33;0.60;;;;;;;4.93;100.00;93971.94;2563390;23;20004;-84
2023/01/03 01:11:00;;;;;;;2.53;0.80;;;;;;;4.91;100.00;93968.88;2574250;22;20359;-84
2023/01/03 01:12:23;;;;;;;2.20;0.90;;;;;;;4.93;100.00;93976.50;2570345;23;20092;-85
2023/01/03 01:13:24;;;;;;;1.17;0.80;;;;;;;4.93;100.00;93977.25;2565730;23;20016;-84
2023/01/03 01:14:32;;;;;;;1.20;0.75;;;;;;;4.94;100.00;93980.66;2569191;23;20079;-84
2023/01/03 01:15:40;;;;;;;1.40;1.10;;;;;;;4.90;100.00;93983.25;2572053;22;20001;-84
2023/01/03 01:17:02;;;;;;;1.58;0.70;;;;;;;4.97;100.00;93979.94;2581596;23;20003;-84
2023/01/03 01:18:11;;;;;;;0.52;0.50;;;;;;;4.89;100.00;93978.31;2585895;22;20007;-84
2023/01/03 01:19:15;;;;;;;2.17;0.85;;;;;;;4.89;100.00;93981.72;2583515;22;20016;-84
2023/01/03 01:20:17;;;;;;;0.73;0.70;;;;;;;4.94;100.00;93978.00;2581582;23;20419;-84
2023/01/03 01:21:24;;;;;;;1.88;0.80;;;;;;;4.90;100.00;93977.97;2581835;22;20095;-84
2023/01/03 01:22:38;;;;;;;3.30;1.20;;;;;;;4.88;100.00;93977.56;2570651;23;20032;-85
2023/01/03 01:24:13;;;;;;;3.92;0.90;;;;;;;4.92;100.00;93975.72;2571665;23;20013;-84
2023/01/03 01:25:16;;;;;;;0.88;0.63;;;;;;;4.92;100.00;93969.66;2565314;23;20011;-84
2023/01/03 01:26:23;;;;;;;0.60;0.60;;;;;;;4.86;100.00;93971.84;2569492;22;20020;-85
2023/01/03 01:27:25;;;;;;;0.70;0.70;;;;;;;4.86;100.00;93963.91;2569851;23;20015;-84
2023/01/03 01:28:33;;;;;;;1.05;0.80;;;;;;;4.84;100.00;93968.03;2568929;23;20028;-83
2023/01/03 01:29:43;;;;;;;3.08;0.80;;;;;;;4.84;100.00;93968.03;2572037;23;20388;-84
2023/01/03 01:30:48;;;;;;;0.80;0.70;;;;;;;4.88;100.00;93971.50;2572747;23;20059;-83
2023/01/03 01:31:50;;;;;;;3.78;0.95;;;;;;;4.89;100.00;93973.03;2584073;23;20000;-84
2023/01/03 01:33:03;;;;;;;3.50;0.90;;;;;;;4.87;100.00;93967.31;2584207;22;20010;-84
2023/01/03 01:34:09;;;;;;;2.70;0.70;;;;;;;5.00;100.00;93972.06;2584803;23;20087;-84
2023/01/03 01:35:18;;;;;;;1.60;0.75;;;;;;;5.01;100.00;93970.94;2562140;23;20009;-84
2023/01/03 01:36:32;;;;;;;0.73;0.70;;;;;;;4.97;100.00;93979.94;2586630;22;20007;-84
2023/01/03 01:37:38;;;;;;;1.10;0.60;;;;;;;4.94;100.00;93978.78;2575051;23;20005;-84
2023/01/03 01:38:52;;;;;;;1.48;0.88;;;;;;;4.88;100.00;93969.63;2573916;23;20004;-85
2023/01/03 01:40:02;;;;;;;1.08;0.70;;;;;;;4.91;100.00;93968.13;2588224;22;20011;-84
2023/01/03 01:41:13;;;;;;;0.80;0.73;;;;;;;4.88;100.00;93966.22;2598365;22;20015;-83
2023/01/03 01:44:37;;;;;;;1.27;0.70;;;;;;;5.12;100.00;93967.66;2587925;22;20037;-85
2023/01/03 01:45:47;;;;;;;2.00;0.85;;;;;;;5.23;100.00;93974.63;2568741;23;20012;-83
2023/01/03 01:46:58;;;;;;;1.55;0.60;;;;;;;5.02;100.00;93974.34;2582678;22;20000;-84
2023/01/03 01:48:16;;;;;;;3.83;0.80;;;;;;;5.00;100.00;93965.97;2580530;23;20000;-85
2023/01/03 01:49:22;;;;;;;1.25;0.80;;;;;;;4.97;100.00;93972.75;2580751;23;20319;-84
2023/01/03 01:50:45;;;;;;;1.40;0.70;;;;;;;4.92;100.00;93965.13;2557508;23;20035;-85
2023/01/03 01:51:50;;;;;;;2.10;0.80;;;;;;;4.90;100.00;93967.38;2577679;22;20008;-85
2023/01/03 01:52:51;;;;;;;2.10;0.68;;;;;;;4.90;100.00;93969.25;2569371;23;20447;-85
2023/01/03 01:53:59;;;;;;;1.85;0.70;;;;;;;4.88;100.00;93969.63;2568340;22;20051;-85
2023/01/03 01:55:12;;;;;;;1.33;0.52;;;;;;;4.86;100.00;93965.78;2582604;22;20415;-85
2023/01/03 01:56:38;;;;;;;0.93;0.55;;;;;;;4.85;100.00;93969.56;2571102;23;20071;-84
2023/01/03 01:57:46;;;;;;;1.25;0.70;;;;;;;4.85;100.00;93972.22;2566401;23;20011;-86
2023/01/03 01:58:56;;;;;;;3.38;0.68;;;;;;;4.97;100.00;93972.75;2570241;23;20031;-85
2023/01/03 02:00:10;;;;;;;2.03;0.80;;;;;;;4.93;100.00;93977.25;2571259;23;20009;-84
2023/01/03 02:01:20;;;;;;;1.58;0.80;;;;;;;4.92;100.00;93980.25;2574565;22;20095;-84
2023/01/03 02:02:32;;;;;;;2.38;0.80;;;;;;;4.99;100.00;93985.63;2583651;22;20312;-85
2023/01/03 02:03:34;;;;;;;2.67;0.70;;;;;;;5.06;100.00;93993.69;2568906;23;20589;-84
2023/01/03 02:04:39;;;;;;;1.65;0.73;;;;;;;5.07;100.00;93987.28;2557221;22;20340;-85
2023/01/03 02:05:51;;;;;;;1.67;0.60;;;;;;;5.01;100.00;93986.06;2594056;22;20387;-84
2023/01/03 02:06:57;;;;;;;2.47;0.63;;;;;;;5.03;100.00;93981.91;2581715;23;20010;-85
2023/01/03 02:08:02;;;;;;;1.73;0.73;;;;;;;5.15;100.00;93993.44;2570359;23;20004;-84
2023/01/03 02:09:05;;;;;;;1.73;0.68;;;;;;;5.12;100.00;93997.56;2570514;22;20107;-84
2023/01/03 02:10:15;;;;;;;2.22;0.70;;;;;;;5.03;100.00;93995.16;2569612;23;20068;-85
2023/01/03 02:11:19;;;;;;;1.38;0.70;;;;;;;4.91;100.00;93995.38;2560746;23;20033;-84
2023/01/03 02:13:16;;;;;;;2.08;0.70;;;;;;;4.83;100.00;93999.06;2569637;23;20562;-85
2023/01/03 02:14:42;;;;;;;1.95;0.70;;;;;;;4.82;100.00;93991.47;2546132;23;20006;-85
2023/01/03 02:17:57;;;;;;;;;;;;;;;4.77;100.00;94000.47;2131235;27;20187;-85
2023/01/03 02:19:39;;;;;;;3.47;0.90;;;;;;;4.76;100.00;93988.34;2112843;28;19918;-83
2023/01/03 02:21:38;;;;;;;1.88;0.60;;;;;;;4.77;100.00;93987.22;2107903;28;20636;-85
2023/01/03 02:23:04;;;;;;;1.90;0.68;;;;;;;4.74;100.00;93988.72;2088388;28;20029;-84
2023/01/03 02:24:24;;;;;;;1.02;0.70;;;;;;;4.76;100.00;93991.78;2108016;28;20019;-85
2023/01/03 02:26:06;;;;;;;4.15;1.00;;;;;;;4.82;100.00;93984.28;2101131;28;20028;-85
2023/01/03 02:27:44;;;;;;;1.13;0.57;;;;;;;4.71;100.00;93978.06;2107456;28;20040;-84
2023/01/03 02:28:57;;;;;;;3.25;0.63;;;;;;;4.73;100.00;93983.75;2115201;28;20023;-87
2023/01/03 02:30:28;;;;;;;2.85;0.75;;;;;;;4.69;100.00;93988.25;2112679;28;20516;-84
2023/01/03 02:32:06;;;;;;;2.05;0.55;;;;;;;4.88;100.00;93980.22;2105272;28;20028;-84
2023/01/03 02:33:33;;;;;;;1.27;0.70;;;;;;;4.81;100.00;93977.44;2106437;28;20120;-84
2023/01/03 02:34:57;;;;;;;2.05;0.80;;;;;;;4.77;100.00;93982.69;2104239;28;20114;-86
2023/01/03 02:36:50;;;;;;;0.77;0.50;;;;;;;4.89;100.00;93987.03;2101225;28;20032;-84
2023/01/03 02:38:21;;;;;;;1.63;0.75;;;;;;;4.80;100.00;93987.28;2120341;28;20023;-85
2023/01/03 02:39:37;;;;;;;1.42;0.68;;;;;;;4.86;100.00;93987.75;2109305;28;20069;-86
2023/01/03 02:41:08;;;;;;;0.80;0.80;;;;;;;4.89;100.00;93983.63;2100708;28;20106;-85
2023/01/03 02:44:09;;;;;;;0.60;0.57;;;;;;;4.71;100.00;93983.38;2118715;28;20031;-85
2023/01/03 02:45:19;;;;;;;0.50;0.50;;;;;;;4.73;100.00;93986.41;2107051;28;20558;-85
2023/01/03 02:47:17;;;;;;;0.55;0.55;;;;;;;4.67;100.00;93975.38;2110371;28;20031;-85
2023/01/03 02:49:10;;;;;;;2.70;0.60;;;;;;;4.62;100.00;93980.22;2078489;28;20168;-84
2023/01/03 02:50:23;;;;;;;0.98;0.70;;;;;;;4.63;100.00;93984.38;2102686;28;20028;-85
2023/01/03 02:52:05;;;;;;;1.02;0.70;;;;;;;4.65;100.00;93984.78;2090766;28;20029;-84
2023/01/03 02:53:29;;;;;;;4.40;0.60;;;;;;;4.68;100.00;93981.44;2099130;28;20028;-86
2023/01/03 02:54:45;;;;;;;1.58;0.60;;;;;;;4.68;100.00;93981.44;2093958;28;20020;-86
2023/01/03 02:56:01;;;;;;;1.00;0.70;;;;;;;4.64;100.00;93980.59;2092045;28;20029;-85
2023/01/03 02:57:28;;;;;;;3.28;0.70;;;;;;;4.64;100.00;93975.31;2093101;28;20033;-85
2023/01/03 02:58:37;;;;;;;1.35;0.80;;;;;;;4.59;100.00;93984.31;2093876;28;20596;-85
2023/01/03 03:00:16;;;;;;;1.40;0.75;;;;;;;4.70;100.00;93981.84;2094844;28;20108;-85
2023/01/03 03:01:43;;;;;;;0.60;0.60;;;;;;;4.76;100.00;93998.94;2076098;28;20092;-85
2023/01/03 03:02:57;;;;;;;0.70;0.60;;;;;;;4.71;100.00;93996.63;2112927;28;20023;-84
2023/01/03 03:04:05;;;;;;;3.60;0.60;;;;;;;4.70;100.00;93995.09;2107098;28;20020;-85
2023/01/03 03:05:37;;;;;;;;;;;;;;;;;;;;;
2023/01/03 03:07:18;;;;;;;2.25;1.42;;;;;;;4.69;100.00;93993.53;2125362;28;20027;-82
2023/01/03 03:08:37;;;;;;;3.22;0.63;;;;;;;4.67;100.00;93990.50;2119470;28;20034;-85
2023/01/03 03:14:19;;;;;;;1.60;0.90;;;;;;;4.82;100.00;93989.56;2102352;28;20032;-85
2023/01/03 03:19:00;;;;;;;;;;;;;;;;;;;;;
2023/01/03 03:29:00;;;;;;;1.30;0.70;;;;;;;4.75;100.00;93981.53;2105921;28;19962;-84
2023/01/03 03:30:44;;;;;;;;;;;;;;;;;;;;;
2023/01/03 03:35:24;;;;;;;;;;;;;;;;;;;;;
2023/01/03 03:37:04;;;;;;;1.55;0.73;;;;;;;4.83;100.00;93985.81;2115381;28;20032;-84
2023/01/03 03:38:57;;;;;;;1.13;0.80;;;;;;;4.89;100.00;93984.38;2097868;28;20040;-86
2023/01/03 03:46:24;;;;;;;1.98;0.80;;;;;;;4.57;100.00;93983.16;2073025;28;20042;-85
2023/01/03 03:48:21;;;;;;;6.57;1.00;;;;;;;4.56;100.00;93987.69;2059800;28;20431;-84
2023/01/03 03:52:54;;;;;;;;;;;;;;;;;;;;;
2023/01/03 03:54:33;;;;;;;;;;;;;;;;;;;;;
2023/01/03 03:56:27;;;;;;;1.02;0.50;;;;;;;4.53;100.00;93988.41;2115604;28;20027;-82
2023/01/03 03:58:05;;;;;;;1.83;0.80;;;;;;;4.48;100.00;93988.72;2098235;28;20123;-84
2023/01/03 03:59:41;;;;;;;2.90;0.88;;;;;;;4.52;100.00;93986.84;2078803;28;20155;-82
2023/01/03 04:01:42;;;;;;;1.30;0.93;;;;;;;4.49;100.00;93985.69;2080071;28;20056;-84
2023/01/03 04:03:37;;;;;;;2.03;0.80;;;;;;;4.49;100.00;93977.00;2073993;28;20034;-84
2023/01/03 04:05:26;;;;;;;3.08;0.90;;;;;;;4.51;100.00;93991.38;2081480;28;20478;-87
2023/01/03 04:06:53;;;;;;;;;;;;;;;4.58;100.00;93987.34;2089988;28;20067;-83
2023/01/03 04:08:10;;;;;;;0.80;0.73;;;;;;;4.60;100.00;94003.63;2072736;28;19948;-83
2023/01/03 04:09:44;;;;;;;2.90;1.45;;;;;;;4.52;100.00;94000.09;2064024;28;20946;-82
2023/01/03 04:11:14;;;;;;;3.88;1.20;;;;;;;4.47;100.00;93993.22;2074079;28;20034;-83
2023/01/03 04:12:38;;;;;;;;;;;;;;;4.45;100.00;93992.81;2090193;28;20397;-84
2023/01/03 04:14:07;;;;;;;4.38;1.60;;;;;;;4.45;100.00;93995.47;2098901;28;20680;-83
2023/01/03 04:15:36;;;;;;;1.95;1.75;;;;;;;4.42;100.00;93993.53;2094690;28;20420;-84
2023/01/03 04:17:42;;;;;;;;;;;;;;;;;;;;;
2023/01/03 04:21:55;;;;;;;4.35;3.17;;;;;;;4.45;100.00;93979.59;2106023;28;20542;-81
2023/01/03 04:23:42;;;;;;;5.43;3.08;;;;;;;4.44;100.00;93991.31;2100508;28;20050;-86
2023/01/03 04:27:07;;;;;;;;;;;;;;;4.36;100.00;93973.00;2106787;28;20031;-82
2023/01/03 04:28:29;;;;;;;7.15;2.85;;;;;;;4.48;100.00;93980.78;2100770;28;19911;-85
2023/01/03 04:30:14;;;;;;;;;;;;;;;;;;;;;
2023/01/03 04:33:33;;;;;;;3.13;2.47;;;;;;;4.51;100.00;93994.03;2105253;28;20032;-86
2023/01/03 04:35:20;;;;;;;;;;;;;;;;;;;;;
2023/01/03 04:38:41;;;;;;;;;;;;;;;;;;;;;
2023/01/03 04:44:05;;;;;;;1.48;0.90;;;;;;;4.28;100.00;93988.00;2112001;28;20035;-83
2023/01/03 04:45:28;;;;;;;7.05;1.02;;;;;;;4.29;100.00;93992.19;2100398;28;20492;-84
2023/01/03 04:47:00;;;;;;;1.52;1.08;;;;;;;4.30;100.00;93991.06;2095984;28;20058;-83
2023/01/03 04:48:16;;;;;;;1.95;0.90;;;;;;;4.27;100.00;93997.84;2093592;28;20090;-83
2023/01/03 04:49:40;;;;;;;1.60;0.75;;;;;;;4.33;100.00;93995.66;2084479;28;20120;-85
2023/01/03 04:51:40;;;;;;;1.73;1.00;;;;;;;4.34;100.00;93999.81;2087307;28;20039;-84
2023/01/03 04:53:09;;;;;;;2.15;0.90;;;;;;;4.37;100.00;94003.66;2070081;28;20034;-84
2023/01/03 04:55:00;;;;;;;3.80;1.00;;;;;;;4.32;100.00;94004.72;2095167;28;20044;-83
2023/01/03 04:56:57;;;;;;;1.77;0.90;;;;;;;4.27;100.00;94005.78;2096232;28;20425;-83
2023/01/03 05:00:48;;;;;;;3.83;1.00;;;;;;;4.22;100.00;93984.13;2080422;28;20459;-86
2023/01/03 05:04:58;;;;;;;;;;;;;;;;;;;;;
2023/01/03 05:07:19;;;;;;;2.17;0.93;;;;;;;4.45;100.00;94000.75;2108913;28;20054;-84
2023/01/03 05:08:58;;;;;;;;;;;;;;;;;;;;;
2023/01/03 05:10:18;;;;;;;5.28;0.90;;;;;;;4.24;100.00;93995.88;2110782;28;20081;-86
2023/01/03 05:11:47;;;;;;;1.55;0.80;;;;;;;4.16;100.00;93991.59;2110672;28;20045;-82
2023/01/03 05:13:22;;;;;;;4.28;1.00;;;;;;;4.17;100.00;93995.78;2102443;28;20027;-84
2023/01/03 05:15:27;;;;;;;1.48;1.10;;;;;;;4.16;100.00;93999.53;2112558;28;20160;-83
2023/01/03 05:17:11;;;;;;;1.63;1.00;;;;;;;4.00;100.00;93999.66;2112276;28;20104;-86
2023/01/03 05:18:44;;;;;;;2.83;1.00;;;;;;;3.97;100.00;94003.00;2100936;28;20477;-85
2023/01/03 05:26:57;;;;;;;1.92;1.20;;;;;;;3.88;100.00;94015.69;2095252;28;20122;-84
2023/01/03 05:28:45;;;;;;;;;;;;;;;;;;;;;
2023/01/03 05:30:10;;;;;;;4.18;1.30;;;;;;;3.89;100.00;94014.56;2110616;28;20449;-85
2023/01/03 05:33:24;;;;;;;1.38;1.13;;;;;;;3.91;100.00;94025.56;2106173;28;20031;-86
2023/01/03 05:34:40;;;;;;;7.28;1.88;;;;;;;3.87;100.00;94013.41;2092081;28;20471;-83
2023/01/03 05:36:16;;;;;;;2.70;1.08;;;;;;;3.88;100.00;94015.69;2093128;28;20028;-84
2023/01/03 05:38:00;;;;;;;2.08;0.90;;;;;;;3.83;100.00;94020.50;2090200;28;20044;-86
2023/01/03 05:39:38;;;;;;;1.73;1.17;;;;;;;3.83;100.00;94012.56;2114785;28;20027;-81
2023/01/03 05:44:45;;;;;;;1.42;1.20;;;;;;;3.82;100.00;94005.72;2104766;28;20055;-82
2023/01/03 05:46:02;;;;;;;1.48;0.90;;;;;;;3.76;100.00;94016.59;2107486;28;20060;-84
2023/01/03 05:47:15;;;;;;;1.10;0.93;;;;;;;3.75;100.00;94020.34;2095603;28;20036;-84
2023/01/03 05:48:27;;;;;;;3.72;0.95;;;;;;;3.71;100.00;94013.47;2094650;28;20032;-85
2023/01/03 05:49:34;;;;;;;2.03;1.30;;;;;;;3.69;100.00;94023.66;2092282;28;20037;-85
2023/01/03 05:50:46;;;;;;;1.83;1.10;;;;;;;3.64;100.00;94029.19;2097706;28;20032;-82
2023/01/03 05:52:50;;;;;;;1.38;1.10;;;;;;;3.62;100.00;94031.44;2089100;28;20047;-82
2023/01/03 05:54:21;;;;;;;1.13;1.00;;;;;;;3.53;100.00;94039.56;2077431;28;20052;-84
2023/01/03 05:57:38;;;;;;;1.70;0.90;;;;;;;3.43;100.00;94042.78;2085141;28;20662;-83
2023/01/03 05:59:14;;;;;;;3.88;1.20;;;;;;;3.42;100.00;94046.50;2079408;28;20036;-83
2023/01/03 06:00:31;;;;;;;;;;;;;;;3.42;100.00;94046.50;2099216;28;20101;-84
2023/01/03 06:01:47;;;;;;;2.22;1.10;;;;;;;3.47;100.00;94043.63;2089543;28;20005;-82
2023/01/03 06:02:56;;;;;;;1.63;1.02;;;;;;;3.44;100.00;94042.41;2092121;28;20087;-83
2023/01/03 06:04:13;;;;;;;6.45;1.23;;;;;;;3.41;100.00;94043.09;2092670;28;20517;-83
2023/01/03 06:05:37;;;;;;;3.97;1.10;;;;;;;3.36;100.00;94043.38;2099447;28;20131;-85
2023/01/03 06:07:10;;;;;;;1.10;1.02;;;;;;;3.29;100.00;94043.22;2091468;28;20082;-83
2023/01/03 06:08:26;;;;;;;2.83;1.17;;;;;;;3.28;100.00;94046.97;2095078;28;20044;-82
2023/01/03 06:10:00;;;;;;;1.30;1.17;;;;;;;3.30;100.00;94044.00;2089029;28;20032;-85
2023/01/03 06:11:20;;;;;;;6.53;1.33;;;;;;;3.21;100.00;94039.69;2106494;28;20034;-85
2023/01/03 06:12:38;;;;;;;1.23;1.05;;;;;;;3.22;100.00;94048.38;2096684;28;20024;-84
2023/01/03 06:14:15;;;;;;;1.38;1.25;;;;;;;3.12;100.00;94043.66;2085719;28;20037;-85
2023/01/03 06:15:22;;;;;;;1.52;1.10;;;;;;;3.10;100.00;94046.59;2096586;28;20119;-85
2023/01/03 06:18:16;;;;;;;1.40;1.00;;;;;;;3.12;100.00;94043.66;2095045;28;20048;-84
2023/01/03 06:19:42;;;;;;;3.40;1.50;;;;;;;3.15;100.00;94042.94;2100300;28;20031;-83
2023/01/03 06:20:59;;;;;;;2.35;1.48;;;;;;;3.15;100.00;94042.94;2092825;28;20392;-82
2023/01/03 06:22:33;;;;;;;2.80;1.80;;;;;;;3.12;100.00;94041.00;2086032;28;20136;-84
2023/01/03 06:23:48;;;;;;;2.35;1.00;;;;;;;3.12;100.00;94041.00;2089495;28;20503;-84
2023/01/03 06:25:04;;;;;;;1.92;1.67;;;;;;;3.07;100.00;94049.16;2085675;28;20029;-85
2023/01/03 06:26:25;;;;;;;3.45;1.30;;;;;;;3.07;100.00;94049.16;2093806;28;20024;-84
2023/01/03 06:27:42;;;;;;;1.90;1.10;;;;;;;3.09;100.00;94055.66;2090811;28;20075;-85
2023/01/03 06:28:54;;;;;;;1.65;1.55;;;;;;;3.06;100.00;94051.03;2094171;28;20378;-84
2023/01/03 06:30:14;;;;;;;2.10;1.20;;;;;;;3.16;100.00;94055.81;2102470;28;20687;-84
2023/01/03 06:31:20;;;;;;;4.90;1.25;;;;;;;3.29;100.00;94053.78;2105736;28;20024;-84
2023/01/03 06:32:35;;;;;;;1.63;1.10;;;;;;;3.25;100.00;94053.75;2096764;28;20022;-85
2023/01/03 06:33:44;;;;;;;1.75;1.08;;;;;;;3.24;100.00;94054.06;2091038;28;20084;-84
2023/01/03 06:34:54;;;;;;;3.40;1.10;;;;;;;3.18;100.00;94061.50;2090713;28;20083;-83
2023/01/03 06:36:18;;;;;;;5.43;1.65;;;;;;;3.03;100.00;94059.69;2092317;28;20032;-84
2023/01/03 06:37:26;;;;;;;1.52;1.02;;;;;;;3.05;100.00;94068.00;2094854;28;20040;-85
2023/01/03 06:38:37;;;;;;;1.85;1.20;;;;;;;3.00;100.00;94065.63;2090330;28;20047;-84
2023/01/03 06:39:49;;;;;;;3.38;1.20;;;;;;;2.92;100.00;94071.88;2090955;28;20028;-85
2023/01/03 06:40:56;;;;;;;1.98;1.25;;;;;;;2.88;100.00;94071.03;2091642;28;20021;-86
2023/01/03 06:42:38;;;;;;;5.28;1.13;;;;;;;2.86;100.00;94071.38;2088766;28;20036;-84
2023/01/03 06:43:35;;;;;;;3.10;1.20;;;;;;;2.80;100.00;94067.44;2098274;28;20024;-83
2023/01/03 06:54:29;;;;;;;4.75;0.93;;;;;;;2.55;100.00;94076.66;2082160;28;20041;-83
2023/01/03 06:55:37;;;;;;;1.20;1.00;;;;;;;2.51;100.00;94079.22;2075514;28;20722;-84
2023/01/03 06:56:52;;;;;;;2.13;0.90;;;;;;;2.41;100.00;94075.19;2080415;28;20059;-83
2023/01/03 06:58:04;;;;;;;3.22;1.33;;;;;;;2.38;100.00;94070.63;2093388;28;20032;-84
2023/01/03 06:59:08;;;;;;;8.50;1.27;;;;;;;2.37;100.00;94070.94;2088560;28;20156;-85
2023/01/03 07:00:16;;;;;;;4.35;1.10;;;;;;;2.36;100.00;94077.34;2080132;28;20498;-84
2023/01/03 07:01:32;;;;;;;1.50;0.93;;;;;;;2.38;100.00;94072.50;2082046;28;20031;-84
2023/01/03 07:02:37;;;;;;;4.50;1.27;;;;;;;2.38;100.00;94073.25;2090663;28;20033;-83
2023/01/03 07:03:49;;;;;;;2.97;0.98;;;;;;;2.40;100.00;94072.91;2081305;28;20080;-84
2023/01/03 07:04:54;;;;;;;2.45;1.35;;;;;;;2.36;100.00;94077.34;2091385;28;20029;-84
2023/01/03 07:06:21;;;;;;;1.90;1.25;;;;;;;2.29;100.00;94072.66;2097848;28;20039;-85
2023/01/03 07:07:28;;;;;;;3.55;2.42;;;;;;;2.19;100.00;94073.13;2110687;28;20076;-83
2023/01/03 07:08:36;;;;;;;;;;;;;;;2.21;100.00;94081.50;2108718;28;20119;-84
2023/01/03 07:09:40;;;;;;;1.52;1.40;;;;;;;2.13;100.00;94070.00;2105720;28;19908;-84
2023/01/03 07:10:46;;;;;;;4.32;1.23;;;;;;;2.07;100.00;94074.00;2098454;28;20034;-84
2023/01/03 07:15:04;;;;;;;1.42;1.25;;;;;;;2.15;100.00;94074.91;2111467;27;20042;-82
2023/01/03 07:16:06;;;;;;;1.77;1.00;;;;;;;2.11;100.00;94076.69;2114493;28;20015;-83
2023/01/03 07:17:17;;;;;;;1.00;0.90;;;;;;;2.11;100.00;94081.97;2098150;28;20036;-85
2023/01/03 07:18:39;;;;;;;2.15;1.40;;;;;;;2.08;100.00;94078.16;2099605;28;20402;-83
2023/01/03 07:19:56;;;;;;;3.60;1.27;;;;;;;2.13;100.00;94085.06;2100692;28;20887;-83
2023/01/03 07:21:09;;;;;;;1.30;1.20;;;;;;;2.30;100.00;94083.97;2101161;28;20016;-82
2023/01/03 07:22:35;;;;;;;2.05;1.40;;;;;;;2.33;100.00;94091.97;2093197;28;20128;-83
2023/01/03 07:23:48;;;;;;;1.42;1.10;;;;;;;2.22;100.00;94086.41;2095439;28;20117;-82
2023/01/03 07:25:01;;;;;;;1.17;0.82;;;;;;;2.19;100.00;94092.38;2100411;28;20034;-84
2023/01/03 07:26:11;;;;;;;3.13;1.15;;;;;;;2.01;100.00;94085.88;2086297;28;20039;-86
2023/01/03 07:27:29;;;;;;;1.23;1.08;;;;;;;2.00;100.00;94089.63;2093310;28;20063;-84
2023/01/03 07:28:46;;;;;;;2.97;1.10;;;;;;;2.04;100.00;94093.13;2102490;28;20030;-83
2023/01/03 07:30:05;;;;;;;1.38;1.23;;;;;;;2.01;100.00;94085.88;2098431;28;20044;-84
2023/01/03 07:31:18;;;;;;;2.25;1.00;;;;;;;1.96;100.00;94099.31;2092651;28;20031;-83
2023/01/03 07:32:30;;;;;;;2.67;0.90;;;;;;;1.92;100.00;94096.56;2092931;28;20025;-84
2023/01/03 07:33:33;;;;;;;1.27;0.80;;;;;;;1.91;100.00;94094.28;2091775;28;20032;-81
2023/01/03 07:35:01;;;;;;;1.38;1.00;;;;;;;1.96;100.00;94099.31;2091232;28;20059;-83
2023/01/03 07:36:21;;;;;;;1.40;1.30;;;;;;;1.87;100.00;94093.41;2094487;28;20112;-83
2023/01/03 07:37:54;;;;;;;1.50;0.98;;;;;;;1.86;100.00;94103.19;2094889;28;20382;-84